Nuussuaq

KL  EN  DA
ASIAQ
Weather Now GREENLAND SURVEY
Updated [WGT/WGST] Temperature [°C] Wind [m/s] Air pressure [hPa] Relative humidity [%] Precipitation [mm]
Present Wind chill Speed Max
27.09 02:00-3,2-6,32,1 ⇐3,6102058n/a
27.09 01:00-2,8-7,03,1 ⇐4,6102063n/a
27.09 00:00-3,4-7,73,1 ⇐4,1102063n/a
26.09 23:00-2,5-6,12,6 ⇐4,1101964n/a
26.09 22:00-2,9-7,13,1 ⇐3,6101960n/a
26.09 21:00-2,6-6,22,6 ⇐3,6101963n/a
26.09 20:00-2,8-6,52,6 ⇐3,6101962n/a
26.09 19:00-2,2-4,31,5 ⇖2,6101961n/a
26.09 18:00-2,1-5,02,1 ⇖3,6101961n/a
26.09 17:00-2,1-5,62,6 ⇖3,6101861n/a
26.09 16:00-2,5-6,12,6 ⇖3,6101859n/a
26.09 15:00-2,6-6,22,6 ⇖3,1101861n/a
26.09 14:00-2,7-6,83,1 ⇖4,1101861n/a
26.09 13:00-3,1-8,24,1 ⇖6,2101862n/a
26.09 12:00-3,0-8,04,1 ⇖6,2101863n/a
26.09 11:00-2,30,00,5 ⇖1,5101857n/a
26.09 10:00-2,9-7,13,1 ⇖4,6101856n/a
26.09 09:00-3,6-10,46,7 ⇙8,8101746n/a
26.09 08:00-4,1-8,02,6 ⇓5,1101844n/a
26.09 07:00-3,20,01,0 ⇘2,1101847n/a
26.09 06:00-3,00,01,0 ⇙2,1101845n/a
26.09 05:00-3,50,01,0 ⇘1,5101846n/a
26.09 04:00-3,60,01,0 ⇙2,6101846n/a
26.09 03:00-3,1-6,22,1 ⇐4,1101844n/a
26.09 02:00-3,7-9,34,6 ⇓5,7101843n/a
Position: (70.656111111,-54.6)

[Back]